createdAt,value
2022-12-15T00:01:48.823Z,99.90
2022-12-15T00:07:09.961Z,99.90
2022-12-15T00:12:30.862Z,99.90
2022-12-15T00:17:51.997Z,99.90
2022-12-15T00:23:13.005Z,99.90
2022-12-15T00:28:34.162Z,99.90
2022-12-15T00:33:55.179Z,99.90
2022-12-15T00:39:03.385Z,99.90
2022-12-15T00:44:06.288Z,99.90
2022-12-15T00:49:28.613Z,99.90
2022-12-15T00:54:49.727Z,99.90
2022-12-15T01:00:10.804Z,99.90
2022-12-15T01:05:32.045Z,99.90
2022-12-15T01:10:53.129Z,99.90
2022-12-15T01:16:14.384Z,99.90
2022-12-15T01:21:16.763Z,99.90
2022-12-15T01:26:19.495Z,99.90
2022-12-15T01:31:22.159Z,99.90
2022-12-15T01:36:25.045Z,99.90
2022-12-15T01:41:27.754Z,99.90
2022-12-15T01:46:30.211Z,99.90
2022-12-15T01:51:35.406Z,99.90
2022-12-15T01:56:47.401Z,99.90
2022-12-15T02:01:50.420Z,99.90
2022-12-15T02:06:53.176Z,99.90
2022-12-15T02:12:07.635Z,99.90
2022-12-15T02:17:32.791Z,99.90
2022-12-15T02:22:53.802Z,99.90
2022-12-15T02:28:01.750Z,99.90
2022-12-15T02:33:27.732Z,99.90
2022-12-15T02:38:36.580Z,99.90
2022-12-15T02:43:39.642Z,99.90
2022-12-15T02:49:01.583Z,99.90
2022-12-15T02:54:15.547Z,99.90
2022-12-15T03:00:02.547Z,99.90
2022-12-15T03:05:05.138Z,99.90
2022-12-15T03:10:08.311Z,99.60
2022-12-15T03:15:11.072Z,99.90
2022-12-15T03:20:13.466Z,99.90
2022-12-15T03:25:15.835Z,99.90
2022-12-15T03:30:18.353Z,99.70
2022-12-15T03:35:21.183Z,98.00
2022-12-15T03:40:23.574Z,99.30
2022-12-15T03:45:27.743Z,99.40
2022-12-15T03:50:30.392Z,98.70
2022-12-15T03:55:32.742Z,99.00
2022-12-15T04:00:35.044Z,98.20
2022-12-15T04:05:37.962Z,99.40
2022-12-15T04:10:40.203Z,99.90
2022-12-15T04:15:42.464Z,99.80
2022-12-15T04:20:44.701Z,99.20
2022-12-15T04:26:05.641Z,99.10
2022-12-15T04:31:35.991Z,98.30
2022-12-15T04:36:59.184Z,98.70
2022-12-15T04:42:21.253Z,99.20
2022-12-15T04:47:42.375Z,97.90
2022-12-15T04:53:03.338Z,98.50
2022-12-15T04:58:28.432Z,98.00
2022-12-15T05:03:49.567Z,98.80
2022-12-15T05:09:10.502Z,99.60
2022-12-15T05:14:31.603Z,99.90
2022-12-15T05:19:52.593Z,99.10
2022-12-15T05:25:13.738Z,98.60
2022-12-15T05:30:34.924Z,98.70
2022-12-15T05:35:37.163Z,97.90
2022-12-15T05:40:39.843Z,99.00
2022-12-15T05:45:42.054Z,99.20
2022-12-15T05:50:44.803Z,98.30
2022-12-15T05:55:47.065Z,98.30
2022-12-15T06:00:49.324Z,97.90
2022-12-15T06:05:56.320Z,99.10
2022-12-15T06:10:58.993Z,97.60
2022-12-15T06:16:06.719Z,97.70
2022-12-15T06:21:12.400Z,97.90
2022-12-15T06:26:16.143Z,98.90
2022-12-15T06:31:22.782Z,99.50
2022-12-15T06:36:25.306Z,98.70
2022-12-15T06:41:30.860Z,98.00
2022-12-15T06:46:35.057Z,98.10
2022-12-15T06:51:37.653Z,98.10
2022-12-15T06:56:40.295Z,97.50
2022-12-15T07:01:43.200Z,98.10
2022-12-15T07:06:45.717Z,98.20
2022-12-15T07:11:50.359Z,99.40
2022-12-15T07:16:52.596Z,98.20
2022-12-15T07:21:57.638Z,98.30
2022-12-15T07:26:59.890Z,99.30
2022-12-15T07:32:02.195Z,97.90
2022-12-15T07:37:04.581Z,98.80
2022-12-15T07:42:07.311Z,99.20
2022-12-15T07:47:09.534Z,99.30
2022-12-15T07:52:14.038Z,99.40
2022-12-15T07:57:16.505Z,99.30
2022-12-15T08:02:18.891Z,99.90
2022-12-15T08:07:22.110Z,99.90
2022-12-15T08:12:24.360Z,99.90
2022-12-15T08:17:26.611Z,99.90
2022-12-15T08:22:28.864Z,99.90
2022-12-15T08:27:31.151Z,99.90
2022-12-15T08:32:33.408Z,99.90
2022-12-15T08:37:35.687Z,99.90
2022-12-15T08:42:40.093Z,99.90
2022-12-15T08:47:42.318Z,99.90
2022-12-15T08:53:06.565Z,99.90
2022-12-15T08:58:07.392Z,99.90
2022-12-15T09:03:09.696Z,99.90
2022-12-15T09:08:12.060Z,99.90
2022-12-15T09:13:14.288Z,99.90
2022-12-15T09:18:16.536Z,99.90
2022-12-15T09:23:18.826Z,99.90
2022-12-15T09:28:21.053Z,99.90
2022-12-15T09:33:23.371Z,99.90
2022-12-15T09:38:26.026Z,99.90
2022-12-15T09:43:46.249Z,99.90
2022-12-15T09:48:51.618Z,99.90
2022-12-15T09:53:55.494Z,99.90
2022-12-15T09:59:09.707Z,99.90
2022-12-15T10:04:23.177Z,99.90
2022-12-15T10:09:28.967Z,99.90
2022-12-15T10:14:43.048Z,99.90
2022-12-15T10:20:04.532Z,99.90
2022-12-15T10:25:29.456Z,99.90
2022-12-15T10:30:33.804Z,99.90
2022-12-15T10:35:37.175Z,99.90
2022-12-15T10:40:50.426Z,99.90
2022-12-15T10:46:13.567Z,99.90
2022-12-15T10:51:37.216Z,99.90
2022-12-15T10:56:55.271Z,99.90
2022-12-15T11:02:24.081Z,99.90
2022-12-15T11:08:12.398Z,99.90
2022-12-15T11:13:20.194Z,99.90
2022-12-15T11:18:39.114Z,99.90
2022-12-15T11:24:00.385Z,99.90
2022-12-15T11:29:36.672Z,99.90
2022-12-15T11:34:44.502Z,99.90
2022-12-15T11:40:19.764Z,99.90
2022-12-15T11:45:30.215Z,99.90
2022-12-15T11:50:53.928Z,99.90
2022-12-15T11:56:21.619Z,99.90
2022-12-15T12:01:39.255Z,99.90
2022-12-15T12:07:02.136Z,99.90
2022-12-15T12:12:30.276Z,99.90
2022-12-15T12:17:46.029Z,99.90
2022-12-15T12:23:02.650Z,99.90
2022-12-15T12:28:07.145Z,99.90
2022-12-15T12:35:30.981Z,99.90
2022-12-15T12:40:57.338Z,99.90
2022-12-15T12:46:10.071Z,99.90
2022-12-15T12:51:27.681Z,99.90
2022-12-15T12:56:42.126Z,99.90
2022-12-15T13:01:44.502Z,99.90
2022-12-15T13:06:46.880Z,99.90
2022-12-15T13:11:49.400Z,99.90
2022-12-15T13:17:25.304Z,99.90
2022-12-15T13:22:39.997Z,99.90
2022-12-15T13:27:42.834Z,99.90
2022-12-15T13:32:47.136Z,99.90
2022-12-15T13:37:52.077Z,99.90
2022-12-15T13:43:06.216Z,99.90
2022-12-15T13:48:20.456Z,99.90
2022-12-15T13:53:26.192Z,99.90
2022-12-15T13:58:33.824Z,99.90
2022-12-15T14:03:37.225Z,99.90
2022-12-15T14:08:39.817Z,99.90
2022-12-15T14:13:42.272Z,99.90
2022-12-15T14:18:45.628Z,99.90
2022-12-15T14:24:19.241Z,99.90
2022-12-15T14:29:10.470Z,99.90
2022-12-15T14:34:19.165Z,99.90
2022-12-15T14:39:30.379Z,99.90
2022-12-15T14:44:39.320Z,99.90
2022-12-15T14:49:45.258Z,99.90
2022-12-15T14:54:53.894Z,99.90
2022-12-15T15:00:00.021Z,99.90
2022-12-15T15:05:07.333Z,99.90
2022-12-15T15:10:23.306Z,99.90
2022-12-15T15:15:26.650Z,99.90
2022-12-15T15:20:32.533Z,99.90
2022-12-15T15:25:41.326Z,99.90
2022-12-15T15:30:56.324Z,99.90
2022-12-15T15:36:01.786Z,99.90
2022-12-15T15:41:22.025Z,99.90
2022-12-15T15:46:29.853Z,99.90
2022-12-15T15:51:33.563Z,99.90
2022-12-15T15:56:36.419Z,99.90
2022-12-15T16:01:38.862Z,99.90
2022-12-15T16:06:46.907Z,99.90
2022-12-15T16:11:50.740Z,99.90
2022-12-15T16:16:54.649Z,99.90
2022-12-15T16:21:56.959Z,99.90
2022-12-15T16:26:59.227Z,99.90
2022-12-15T16:32:01.451Z,99.90
2022-12-15T16:37:04.734Z,99.90
2022-12-15T16:42:11.971Z,99.90
2022-12-15T16:47:14.399Z,99.90
2022-12-15T16:52:21.036Z,99.90
2022-12-15T16:57:23.902Z,99.90
2022-12-15T17:02:29.991Z,99.90
2022-12-15T17:07:32.588Z,99.90
2022-12-15T17:12:34.980Z,99.90
2022-12-15T17:17:37.220Z,99.90
2022-12-15T17:22:39.462Z,99.90
2022-12-15T17:27:42.113Z,99.90
2022-12-15T17:32:44.611Z,99.90
2022-12-15T17:37:46.884Z,99.90
2022-12-15T17:42:50.116Z,99.90
2022-12-15T17:47:52.977Z,99.90
2022-12-15T17:52:55.280Z,99.90
2022-12-15T17:57:59.525Z,99.90
2022-12-15T18:03:02.091Z,99.90
2022-12-15T18:08:14.027Z,99.90
2022-12-15T18:13:23.072Z,99.90
2022-12-15T18:18:26.120Z,99.90
2022-12-15T18:23:31.097Z,99.90
2022-12-15T18:28:35.221Z,99.90
2022-12-15T18:33:37.438Z,99.90
2022-12-15T18:38:40.037Z,99.90
2022-12-15T18:43:43.169Z,99.90
2022-12-15T18:48:45.874Z,99.90
2022-12-15T18:53:49.098Z,99.90
2022-12-15T18:58:51.529Z,99.90
2022-12-15T19:03:53.850Z,99.90
2022-12-15T19:08:56.146Z,99.90
2022-12-15T19:14:02.931Z,99.90
2022-12-15T19:19:24.006Z,99.90
2022-12-15T19:24:47.664Z,99.90
2022-12-15T19:29:50.956Z,99.90
2022-12-15T19:34:53.205Z,99.90
2022-12-15T19:40:00.400Z,99.90
2022-12-15T19:45:17.540Z,99.90
2022-12-15T19:50:25.903Z,99.90
2022-12-15T19:55:32.745Z,99.90
2022-12-15T20:00:35.688Z,99.90
2022-12-15T20:05:38.188Z,99.90
2022-12-15T20:10:40.933Z,99.90
2022-12-15T20:15:43.323Z,99.90
2022-12-15T20:20:47.602Z,99.90
2022-12-15T20:25:49.922Z,99.90
2022-12-15T20:30:53.043Z,99.90
2022-12-15T20:35:55.335Z,99.90
2022-12-15T20:40:59.067Z,99.90
2022-12-15T20:46:06.739Z,99.90
2022-12-15T20:51:15.827Z,99.90
2022-12-15T20:56:20.771Z,99.90
2022-12-15T21:01:26.749Z,99.90
2022-12-15T21:06:30.362Z,99.90
2022-12-15T21:11:33.039Z,99.90
2022-12-15T21:16:35.368Z,99.90
2022-12-15T21:21:40.750Z,99.90
2022-12-15T21:26:43.203Z,99.90
2022-12-15T21:31:46.292Z,99.90
2022-12-15T21:36:52.323Z,99.90
2022-12-15T21:42:00.722Z,99.90
2022-12-15T21:47:21.949Z,99.90
2022-12-15T21:52:26.653Z,99.90
2022-12-15T21:57:28.874Z,99.90
2022-12-15T22:02:32.032Z,99.90
2022-12-15T22:07:34.364Z,99.90
2022-12-15T22:12:37.011Z,99.90
2022-12-15T22:17:39.254Z,99.90
2022-12-15T22:22:41.584Z,99.90
2022-12-15T22:27:44.760Z,99.90
2022-12-15T22:32:47.501Z,99.90
2022-12-15T22:37:53.385Z,99.90
2022-12-15T22:42:58.097Z,99.90
2022-12-15T22:48:00.683Z,99.90
2022-12-15T22:53:02.949Z,99.90
2022-12-15T22:58:10.811Z,99.90
2022-12-15T23:03:13.956Z,99.30
2022-12-15T23:08:16.250Z,99.40
2022-12-15T23:13:18.558Z,99.90
2022-12-15T23:18:20.846Z,99.50
2022-12-15T23:23:23.532Z,99.60
2022-12-15T23:28:25.818Z,99.70
2022-12-15T23:33:29.873Z,99.60
2022-12-15T23:38:35.399Z,99.90
2022-12-15T23:43:37.774Z,99.90
2022-12-15T23:48:43.620Z,98.80
2022-12-15T23:53:47.391Z,98.60
2022-12-15T23:58:55.983Z,98.40
